createdAt,value
2022-10-19T00:00:39.549Z,40
2022-10-19T00:01:56.552Z,39
2022-10-19T00:03:13.538Z,39
2022-10-19T00:04:30.532Z,39
2022-10-19T00:05:47.568Z,40
2022-10-19T00:07:04.544Z,40
2022-10-19T00:08:21.523Z,42
2022-10-19T00:09:38.559Z,42
2022-10-19T00:10:55.533Z,42
2022-10-19T00:12:12.571Z,44
2022-10-19T00:13:29.537Z,49
2022-10-19T00:14:46.571Z,51
2022-10-19T00:16:04.915Z,51
2022-10-19T00:17:20.552Z,49
2022-10-19T00:18:37.546Z,50
2022-10-19T00:19:54.546Z,50
2022-10-19T00:21:11.525Z,51
2022-10-19T00:22:28.587Z,50
2022-10-19T00:23:45.546Z,50
2022-10-19T00:25:03.048Z,50
2022-10-19T00:26:20.564Z,49
2022-10-19T00:27:37.585Z,46
2022-10-19T00:28:54.644Z,46
2022-10-19T00:30:11.604Z,46
2022-10-19T00:31:28.580Z,45
2022-10-19T00:32:45.567Z,43
2022-10-19T00:34:02.617Z,43
2022-10-19T00:35:29.390Z,44
2022-10-19T00:36:46.575Z,44
2022-10-19T00:38:03.621Z,44
2022-10-19T00:39:20.575Z,43
2022-10-19T00:40:37.586Z,43
2022-10-19T00:41:54.641Z,43
2022-10-19T00:43:11.608Z,44
2022-10-19T00:44:28.590Z,46
2022-10-19T00:45:45.578Z,49
2022-10-19T00:47:02.665Z,50
2022-10-19T00:48:19.614Z,48
2022-10-19T00:49:36.567Z,46
2022-10-19T00:50:53.591Z,43
2022-10-19T00:52:10.596Z,43
2022-10-19T00:53:27.632Z,42
2022-10-19T00:54:44.589Z,40
2022-10-19T00:56:01.653Z,39
2022-10-19T00:57:18.584Z,39
2022-10-19T00:58:35.659Z,39
2022-10-19T00:59:52.597Z,40
2022-10-19T01:01:09.622Z,39
2022-10-19T01:02:26.683Z,40
2022-10-19T01:03:43.633Z,42
2022-10-19T01:05:00.693Z,43
2022-10-19T01:06:17.636Z,44
2022-10-19T01:07:34.875Z,43
2022-10-19T01:08:51.911Z,44
2022-10-19T01:10:08.697Z,45
2022-10-19T01:11:25.629Z,45
2022-10-19T01:12:42.663Z,44
2022-10-19T01:13:59.667Z,44
2022-10-19T01:15:16.673Z,44
2022-10-19T01:16:33.662Z,44
2022-10-19T01:17:50.685Z,45
2022-10-19T01:19:07.663Z,45
2022-10-19T01:20:24.646Z,46
2022-10-19T01:21:41.655Z,48
2022-10-19T01:22:58.627Z,48
2022-10-19T01:24:15.639Z,47
2022-10-19T01:25:32.691Z,45
2022-10-19T01:26:49.679Z,45
2022-10-19T01:28:06.644Z,44
2022-10-19T01:29:24.531Z,45
2022-10-19T01:30:41.700Z,46
2022-10-19T01:31:58.649Z,48
2022-10-19T01:33:15.670Z,46
2022-10-19T01:34:32.757Z,48
2022-10-19T01:35:50.592Z,46
2022-10-19T01:37:07.652Z,49
2022-10-19T01:38:24.671Z,50
2022-10-19T01:39:43.307Z,54
2022-10-19T01:40:58.676Z,58
2022-10-19T01:42:15.649Z,61
2022-10-19T01:43:32.661Z,68
2022-10-19T01:44:50.545Z,72
2022-10-19T01:46:07.667Z,74
2022-10-19T01:47:24.735Z,78
2022-10-19T01:48:41.996Z,85
2022-10-19T01:49:59.828Z,86
2022-10-19T01:51:16.776Z,85
2022-10-19T01:52:33.848Z,82
2022-10-19T01:53:50.672Z,84
2022-10-19T01:55:07.718Z,82
2022-10-19T01:56:24.679Z,80
2022-10-19T01:57:41.724Z,78
2022-10-19T01:58:58.699Z,76
2022-10-19T02:00:15.726Z,72
2022-10-19T02:01:32.728Z,73
2022-10-19T02:02:49.690Z,73
2022-10-19T02:04:07.236Z,70
2022-10-19T02:05:24.731Z,69
2022-10-19T02:06:41.699Z,68
2022-10-19T02:07:58.775Z,67
2022-10-19T02:09:16.588Z,68
2022-10-19T02:10:33.737Z,67
2022-10-19T02:11:52.225Z,-1
2022-10-19T02:13:07.732Z,67
2022-10-19T02:14:24.757Z,69
2022-10-19T02:15:42.244Z,69
2022-10-19T02:17:00.857Z,70
2022-10-19T02:18:18.604Z,66
2022-10-19T02:19:35.858Z,64
2022-10-19T02:20:52.832Z,63
2022-10-19T02:22:09.778Z,61
2022-10-19T02:23:26.720Z,62
2022-10-19T02:24:43.736Z,63
2022-10-19T02:26:00.773Z,62
2022-10-19T02:27:17.734Z,62
2022-10-19T02:28:34.756Z,62
2022-10-19T02:29:51.733Z,60
2022-10-19T02:31:08.782Z,60
2022-10-19T02:32:25.737Z,63
2022-10-19T02:33:43.564Z,67
2022-10-19T02:35:00.762Z,67
2022-10-19T02:36:18.541Z,68
2022-10-19T02:38:53.880Z,69
2022-10-19T02:40:10.757Z,74
2022-10-19T02:41:28.803Z,74
2022-10-19T02:42:45.753Z,73
2022-10-19T02:44:03.810Z,72
2022-10-19T02:45:20.744Z,73
2022-10-19T02:46:38.606Z,68
2022-10-19T02:47:55.757Z,67
2022-10-19T02:49:13.268Z,67
2022-10-19T02:50:30.773Z,66
2022-10-19T02:51:48.526Z,64
2022-10-19T02:53:05.807Z,64
2022-10-19T02:54:23.551Z,67
2022-10-19T02:56:57.786Z,64
2022-10-19T02:58:14.834Z,64
2022-10-19T02:59:31.844Z,64
2022-10-19T03:00:48.886Z,63
2022-10-19T03:02:05.891Z,64
2022-10-19T03:03:22.841Z,63
2022-10-19T03:04:39.810Z,61
2022-10-19T03:05:56.809Z,-1
2022-10-19T03:07:13.827Z,61
2022-10-19T03:08:31.878Z,62
2022-10-19T03:09:48.864Z,61
2022-10-19T03:11:05.794Z,61
2022-10-19T03:12:23.558Z,56
2022-10-19T03:13:40.810Z,55
2022-10-19T03:14:58.933Z,54
2022-10-19T03:16:15.832Z,52
2022-10-19T03:17:33.827Z,54
2022-10-19T03:18:50.803Z,54
2022-10-19T03:20:07.820Z,55
2022-10-19T03:21:24.870Z,56
2022-10-19T03:22:41.901Z,56
2022-10-19T03:23:59.582Z,54
2022-10-19T03:25:16.932Z,55
2022-10-19T03:26:33.859Z,54
2022-10-19T03:27:50.851Z,54
2022-10-19T03:29:08.037Z,49
2022-10-19T03:30:24.813Z,49
2022-10-19T03:31:41.920Z,51
2022-10-19T03:32:58.934Z,55
2022-10-19T03:34:15.863Z,56
2022-10-19T03:35:32.864Z,58
2022-10-19T03:36:49.858Z,61
2022-10-19T03:38:06.885Z,63
2022-10-19T03:39:23.833Z,62
2022-10-19T03:40:40.907Z,63
2022-10-19T03:41:58.670Z,63
2022-10-19T03:43:15.893Z,62
2022-10-19T03:44:32.856Z,61
2022-10-19T03:45:49.869Z,61
2022-10-19T03:47:06.828Z,61
2022-10-19T03:48:23.951Z,60
2022-10-19T03:49:40.845Z,58
2022-10-19T03:50:57.863Z,58
2022-10-19T03:52:15.486Z,58
2022-10-19T03:53:34.108Z,58
2022-10-19T03:54:50.837Z,57
2022-10-19T03:56:08.599Z,57
2022-10-19T03:57:25.849Z,60
2022-10-19T03:58:42.907Z,58
2022-10-19T03:59:59.866Z,60
2022-10-19T04:01:16.957Z,58
2022-10-19T04:02:33.916Z,61
2022-10-19T04:03:50.859Z,63
2022-10-19T04:05:07.911Z,63
2022-10-19T04:06:25.862Z,64
2022-10-19T04:07:43.601Z,66
2022-10-19T04:09:00.874Z,69
2022-10-19T04:10:17.877Z,72
2022-10-19T04:11:34.895Z,73
2022-10-19T04:12:53.748Z,72
2022-10-19T04:15:25.882Z,69
2022-10-19T04:16:42.899Z,72
2022-10-19T04:17:59.903Z,73
2022-10-19T04:19:16.895Z,72
2022-10-19T04:20:33.955Z,72
2022-10-19T04:21:50.979Z,73
2022-10-19T04:23:07.985Z,75
2022-10-19T04:24:25.715Z,73
2022-10-19T04:25:43.617Z,72
2022-10-19T04:27:00.899Z,68
2022-10-19T04:28:18.016Z,67
2022-10-19T04:29:35.969Z,67
2022-10-19T04:30:52.993Z,72
2022-10-19T04:32:09.916Z,72
2022-10-19T04:33:26.941Z,72
2022-10-19T04:34:43.945Z,73
2022-10-19T04:36:00.933Z,74
2022-10-19T04:37:19.048Z,75
2022-10-19T04:38:36.065Z,73
2022-10-19T04:39:52.901Z,70
2022-10-19T04:47:02.025Z,67
2022-10-19T04:48:18.974Z,66
2022-10-19T04:49:35.981Z,67
2022-10-19T04:50:53.007Z,67
2022-10-19T04:52:10.020Z,67
2022-10-19T04:53:26.948Z,66
2022-10-19T04:54:44.002Z,64
2022-10-19T04:56:00.949Z,-1
2022-10-19T04:57:17.953Z,61
2022-10-19T04:58:35.957Z,60
2022-10-19T04:59:53.024Z,58
2022-10-19T05:01:10.004Z,57
2022-10-19T05:02:26.950Z,57
2022-10-19T05:03:43.984Z,57
2022-10-19T05:05:00.987Z,57
2022-10-19T05:06:18.973Z,55
2022-10-19T05:07:36.225Z,52
2022-10-19T05:08:53.059Z,51
2022-10-19T05:10:10.036Z,50
2022-10-19T05:11:26.992Z,51
2022-10-19T05:12:43.980Z,51
2022-10-19T05:14:01.026Z,50
2022-10-19T05:15:17.997Z,49
2022-10-19T05:16:35.968Z,50
2022-10-19T05:17:52.973Z,51
2022-10-19T05:19:09.995Z,50
2022-10-19T05:20:26.979Z,51
2022-10-19T05:21:43.974Z,48
2022-10-19T05:23:04.569Z,48
2022-10-19T05:24:18.003Z,45
2022-10-19T05:25:36.088Z,45
2022-10-19T05:26:52.994Z,44
2022-10-19T05:28:10.032Z,45
2022-10-19T05:29:27.022Z,46
2022-10-19T05:30:48.201Z,45
2022-10-19T05:32:00.995Z,48
2022-10-19T05:33:18.003Z,49
2022-10-19T05:34:35.038Z,46
2022-10-19T05:35:52.024Z,44
2022-10-19T05:37:09.009Z,45
2022-10-19T05:38:26.035Z,40
2022-10-19T05:39:43.030Z,38
2022-10-19T05:41:00.038Z,38
2022-10-19T05:42:17.030Z,38
2022-10-19T05:43:34.037Z,36
2022-10-19T05:44:51.084Z,36
2022-10-19T05:46:08.059Z,33
2022-10-19T05:47:27.345Z,31
2022-10-19T05:48:43.225Z,28
2022-10-19T05:50:00.051Z,28
2022-10-19T05:51:17.030Z,28
2022-10-19T05:52:34.038Z,30
2022-10-19T05:53:51.105Z,30
2022-10-19T05:55:08.148Z,31
2022-10-19T05:56:25.058Z,29
2022-10-19T05:57:42.034Z,28
2022-10-19T05:58:59.062Z,27
2022-10-19T06:00:16.106Z,27
2022-10-19T06:01:33.128Z,25
2022-10-19T06:02:50.086Z,21
2022-10-19T06:04:07.163Z,21
2022-10-19T06:05:24.056Z,21
2022-10-19T06:06:41.082Z,21
2022-10-19T06:07:58.054Z,22
2022-10-19T06:09:15.085Z,25
2022-10-19T06:10:32.074Z,24
2022-10-19T06:11:49.129Z,21
2022-10-19T06:13:06.058Z,19
2022-10-19T06:14:23.103Z,18
2022-10-19T06:15:40.063Z,14
2022-10-19T06:16:57.116Z,14
2022-10-19T06:18:14.110Z,15
2022-10-19T06:19:32.154Z,15
2022-10-19T06:20:49.078Z,15
2022-10-19T06:22:06.105Z,13
2022-10-19T06:23:23.068Z,12
2022-10-19T06:24:40.174Z,13
2022-10-19T06:25:57.073Z,13
2022-10-19T06:27:14.234Z,12
2022-10-19T06:28:31.108Z,10
2022-10-19T06:29:48.119Z,9
2022-10-19T06:31:07.087Z,7
2022-10-19T06:32:22.098Z,7
2022-10-19T06:33:39.154Z,6
2022-10-19T06:34:56.515Z,6
2022-10-19T06:36:13.716Z,3
2022-10-19T06:37:31.331Z,4
2022-10-19T06:38:48.163Z,2
2022-10-19T06:40:07.175Z,3
2022-10-19T06:41:22.118Z,3
2022-10-19T06:42:39.149Z,4
2022-10-19T06:43:57.483Z,6
2022-10-19T06:45:15.195Z,7
2022-10-19T06:46:32.156Z,7
2022-10-19T06:47:49.148Z,7
2022-10-19T06:49:06.178Z,7
2022-10-19T06:50:23.196Z,7
2022-10-19T06:51:40.408Z,6
2022-10-19T06:52:57.182Z,6
2022-10-19T06:54:14.150Z,6
2022-10-19T06:55:31.151Z,4
2022-10-19T06:58:05.155Z,3
2022-10-19T06:59:22.162Z,2
2022-10-19T07:00:39.233Z,3
2022-10-19T07:01:56.132Z,3
2022-10-19T07:03:13.144Z,1
2022-10-19T07:04:30.220Z,3
2022-10-19T07:05:47.164Z,0
2022-10-19T07:07:04.176Z,0
2022-10-19T07:08:21.134Z,0
2022-10-19T07:09:38.194Z,0
2022-10-19T07:10:55.190Z,0
2022-10-19T07:12:12.181Z,0
2022-10-19T07:13:29.227Z,0
2022-10-19T07:14:46.412Z,0
2022-10-19T07:16:03.186Z,0
2022-10-19T07:17:20.146Z,0
2022-10-19T07:18:37.165Z,0
2022-10-19T07:19:54.223Z,3
2022-10-19T07:21:11.308Z,1
2022-10-19T07:22:28.448Z,0
2022-10-19T07:23:45.202Z,0
2022-10-19T07:25:02.347Z,0
2022-10-19T07:26:19.179Z,0
2022-10-19T07:27:37.710Z,0
2022-10-19T07:28:53.190Z,0
2022-10-19T07:30:10.245Z,1
2022-10-19T07:31:27.266Z,3
2022-10-19T07:32:46.874Z,3
2022-10-19T07:34:01.161Z,3
2022-10-19T07:35:18.208Z,3
2022-10-19T07:36:35.170Z,3
2022-10-19T07:37:52.182Z,2
2022-10-19T07:39:09.175Z,3
2022-10-19T07:40:26.203Z,5
2022-10-19T07:41:43.180Z,4
2022-10-19T07:43:00.184Z,3
2022-10-19T07:44:17.238Z,3
2022-10-19T07:45:34.375Z,3
2022-10-19T07:46:51.203Z,4
2022-10-19T07:48:08.407Z,5
2022-10-19T07:49:25.200Z,5
2022-10-19T07:50:42.227Z,5
2022-10-19T07:51:59.245Z,4
2022-10-19T07:53:16.267Z,4
2022-10-19T07:54:33.234Z,4
2022-10-19T07:55:50.254Z,5
2022-10-19T07:57:07.688Z,3
2022-10-19T07:58:25.314Z,3
2022-10-19T07:59:42.317Z,4
2022-10-19T08:00:59.245Z,4
2022-10-19T08:02:16.516Z,5
2022-10-19T08:05:01.026Z,4
2022-10-19T08:06:07.337Z,4
2022-10-19T08:07:24.258Z,4
2022-10-19T08:08:41.306Z,5
2022-10-19T08:09:58.305Z,4
2022-10-19T08:11:15.405Z,5
2022-10-19T08:12:32.509Z,4
2022-10-19T08:13:49.232Z,5
2022-10-19T08:15:06.476Z,5
2022-10-19T08:16:23.270Z,3
2022-10-19T08:17:40.246Z,1
2022-10-19T08:18:57.251Z,1
2022-10-19T08:20:14.196Z,2
2022-10-19T08:21:31.214Z,3
2022-10-19T08:22:48.150Z,2
2022-10-19T08:24:05.201Z,3
2022-10-19T08:25:22.554Z,2
2022-10-19T08:26:39.264Z,1
2022-10-19T08:27:56.283Z,0
2022-10-19T08:29:13.197Z,0
2022-10-19T08:30:30.292Z,0
2022-10-19T08:31:47.159Z,1
2022-10-19T08:33:04.286Z,1
2022-10-19T08:34:21.334Z,1
2022-10-19T08:35:38.212Z,0
2022-10-19T08:36:55.382Z,0
2022-10-19T08:38:12.211Z,0
2022-10-19T08:39:29.195Z,1
2022-10-19T08:40:46.198Z,1
2022-10-19T08:42:03.209Z,1
2022-10-19T08:43:20.221Z,0
2022-10-19T08:44:37.183Z,0
2022-10-19T08:45:54.302Z,0
2022-10-19T08:47:12.274Z,0
2022-10-19T08:48:28.194Z,1
2022-10-19T08:49:45.242Z,0
2022-10-19T08:51:02.622Z,0
2022-10-19T08:52:19.222Z,0
2022-10-19T08:53:36.204Z,0
2022-10-19T08:54:53.217Z,0
2022-10-19T08:56:12.349Z,2
2022-10-19T08:57:27.232Z,2
2022-10-19T08:58:44.197Z,2
2022-10-19T09:00:01.251Z,3
2022-10-19T09:01:18.392Z,0
2022-10-19T09:02:35.719Z,0
2022-10-19T09:03:56.269Z,0
2022-10-19T09:05:09.264Z,0
2022-10-19T09:06:26.271Z,0
2022-10-19T09:07:43.263Z,0
2022-10-19T09:09:00.550Z,0
2022-10-19T09:10:17.313Z,0
2022-10-19T09:11:34.265Z,0
2022-10-19T09:12:52.840Z,0
2022-10-19T09:14:08.225Z,1
2022-10-19T09:15:25.280Z,0
2022-10-19T09:16:42.262Z,0
2022-10-19T09:17:59.271Z,0
2022-10-19T09:19:16.251Z,1
2022-10-19T09:20:33.428Z,2
2022-10-19T09:21:50.265Z,0
2022-10-19T09:23:11.105Z,0
2022-10-19T09:24:24.239Z,0
2022-10-19T09:25:41.274Z,0
2022-10-19T09:26:58.258Z,0
2022-10-19T09:28:15.263Z,0
2022-10-19T09:29:32.223Z,0
2022-10-19T09:30:49.267Z,0
2022-10-19T09:32:06.292Z,0
2022-10-19T09:33:23.338Z,0
2022-10-19T09:34:40.265Z,1
2022-10-19T09:35:57.262Z,1
2022-10-19T09:37:21.855Z,1
2022-10-19T09:38:31.270Z,3
2022-10-19T09:39:52.305Z,3
2022-10-19T09:41:05.282Z,3
2022-10-19T09:42:22.338Z,3
2022-10-19T09:43:39.270Z,1
2022-10-19T09:44:56.304Z,0
2022-10-19T09:46:19.629Z,0
2022-10-19T09:47:30.298Z,0
2022-10-19T09:48:47.318Z,0
2022-10-19T09:50:04.329Z,0
2022-10-19T09:51:21.296Z,0
2022-10-19T09:52:38.331Z,0
2022-10-19T09:53:55.311Z,0
2022-10-19T09:55:12.453Z,0
2022-10-19T09:56:29.291Z,1
2022-10-19T09:57:46.333Z,0
2022-10-19T09:59:03.280Z,1
2022-10-19T10:00:20.343Z,1
2022-10-19T10:01:40.086Z,1
2022-10-19T10:02:54.345Z,0
2022-10-19T10:04:11.340Z,1
2022-10-19T10:05:28.446Z,1
2022-10-19T10:06:45.334Z,0
2022-10-19T10:08:02.468Z,1
2022-10-19T10:09:19.331Z,0
2022-10-19T10:10:36.369Z,0
2022-10-19T10:13:10.330Z,0
2022-10-19T10:14:27.312Z,0
2022-10-19T10:15:44.414Z,1
2022-10-19T10:17:01.313Z,0
2022-10-19T10:18:18.361Z,0
2022-10-19T10:19:35.319Z,0
2022-10-19T10:20:52.909Z,0
2022-10-19T10:22:10.329Z,0
2022-10-19T10:23:27.339Z,0
2022-10-19T10:24:44.322Z,1
2022-10-19T10:26:01.372Z,0
2022-10-19T10:27:18.390Z,0
2022-10-19T10:28:35.324Z,0
2022-10-19T10:29:52.398Z,0
2022-10-19T10:31:09.338Z,1
2022-10-19T10:32:26.356Z,1
2022-10-19T10:33:45.520Z,1
2022-10-19T10:35:01.414Z,0
2022-10-19T10:36:17.852Z,0
2022-10-19T10:37:34.671Z,0
2022-10-19T10:38:51.792Z,0
2022-10-19T10:40:08.426Z,2
2022-10-19T10:41:25.418Z,1
2022-10-19T10:42:42.858Z,0
2022-10-19T10:44:00.796Z,1
2022-10-19T10:45:16.415Z,1
2022-10-19T10:46:33.362Z,3
2022-10-19T10:47:50.395Z,2
2022-10-19T10:49:07.513Z,0
2022-10-19T10:50:24.426Z,0
2022-10-19T10:51:41.413Z,0
2022-10-19T10:52:58.407Z,0
2022-10-19T10:54:15.476Z,0
2022-10-19T10:55:32.402Z,0
2022-10-19T10:56:49.432Z,0
2022-10-19T10:58:06.437Z,0
2022-10-19T10:59:23.367Z,0
2022-10-19T11:00:40.420Z,0
2022-10-19T11:01:57.975Z,0
2022-10-19T11:03:14.398Z,0
2022-10-19T11:04:31.408Z,1
2022-10-19T11:05:48.511Z,0
2022-10-19T11:07:05.377Z,0
2022-10-19T11:08:22.500Z,0
2022-10-19T11:09:39.388Z,0
2022-10-19T11:10:56.415Z,0
2022-10-19T11:12:13.438Z,0
2022-10-19T11:13:30.552Z,0
2022-10-19T11:14:47.474Z,0
2022-10-19T11:16:04.507Z,0
2022-10-19T11:17:21.387Z,0
2022-10-19T11:18:38.398Z,0
2022-10-19T11:19:55.470Z,0
2022-10-19T11:21:12.535Z,0
2022-10-19T11:22:29.437Z,0
2022-10-19T11:23:46.483Z,0
2022-10-19T11:25:03.521Z,0
2022-10-19T11:26:20.561Z,0
2022-10-19T11:27:37.837Z,0
2022-10-19T11:28:54.519Z,0
2022-10-19T11:30:11.559Z,0
2022-10-19T11:31:29.635Z,0
2022-10-19T11:32:45.988Z,0
2022-10-19T11:34:02.687Z,0
2022-10-19T11:35:19.458Z,0
2022-10-19T11:36:36.472Z,0
2022-10-19T11:38:14.175Z,0
2022-10-19T11:39:10.444Z,0
2022-10-19T11:40:27.734Z,0
2022-10-19T11:41:44.525Z,0
2022-10-19T11:43:01.428Z,0
2022-10-19T11:44:18.437Z,0
2022-10-19T11:45:35.441Z,0
2022-10-19T11:46:52.747Z,0
2022-10-19T11:48:09.464Z,0
2022-10-19T11:49:26.450Z,0
2022-10-19T11:50:44.191Z,0
2022-10-19T11:52:00.654Z,0
2022-10-19T11:53:17.557Z,0
2022-10-19T11:54:34.529Z,0
2022-10-19T11:55:51.471Z,0
2022-10-19T11:57:11.293Z,0
2022-10-19T11:58:25.456Z,0
2022-10-19T11:59:42.769Z,0
2022-10-19T12:00:59.482Z,0
2022-10-19T12:02:16.541Z,0
2022-10-19T12:03:33.472Z,0
2022-10-19T12:04:50.498Z,0
2022-10-19T12:06:07.552Z,1
2022-10-19T12:07:24.480Z,1
2022-10-19T12:08:41.510Z,1
2022-10-19T12:09:58.593Z,1
2022-10-19T12:11:15.496Z,1
2022-10-19T12:12:32.893Z,0
2022-10-19T12:13:49.475Z,0
2022-10-19T12:15:06.890Z,0
2022-10-19T12:16:23.491Z,0
2022-10-19T12:17:40.496Z,0
2022-10-19T12:18:57.804Z,0
2022-10-19T12:20:16.088Z,0
2022-10-19T12:21:31.515Z,0
2022-10-19T12:22:48.484Z,0
2022-10-19T12:24:05.516Z,0
2022-10-19T12:25:23.259Z,0
2022-10-19T12:26:40.517Z,0
2022-10-19T12:27:57.539Z,0
2022-10-19T12:29:14.504Z,0
2022-10-19T12:30:31.541Z,0
2022-10-19T12:31:48.553Z,0
2022-10-19T12:33:05.513Z,0
2022-10-19T12:34:22.503Z,1
2022-10-19T12:35:39.608Z,2
2022-10-19T12:36:56.552Z,2
2022-10-19T12:38:13.744Z,1
2022-10-19T12:39:30.562Z,2
2022-10-19T12:40:47.876Z,2
2022-10-19T12:42:04.534Z,2
2022-10-19T12:43:21.568Z,2
2022-10-19T12:44:38.529Z,3
2022-10-19T12:45:55.570Z,3
2022-10-19T12:47:12.595Z,4
2022-10-19T12:48:29.576Z,2
2022-10-19T12:49:46.524Z,2
2022-10-19T12:51:03.572Z,2
2022-10-19T12:52:20.631Z,2
2022-10-19T12:53:37.556Z,2
2022-10-19T12:54:54.562Z,2
2022-10-19T12:56:11.553Z,2
2022-10-19T12:57:28.620Z,3
2022-10-19T12:58:47.499Z,3
2022-10-19T13:00:02.670Z,3
2022-10-19T13:01:19.646Z,3
2022-10-19T13:02:36.648Z,3
2022-10-19T13:03:53.608Z,3
2022-10-19T13:05:10.549Z,3
2022-10-19T13:06:28.065Z,3
2022-10-19T13:07:45.705Z,3
2022-10-19T13:09:02.664Z,4
2022-10-19T13:10:19.618Z,4
2022-10-19T13:11:36.677Z,3
2022-10-19T13:12:53.643Z,3
2022-10-19T13:14:10.603Z,4
2022-10-19T13:15:27.780Z,5
2022-10-19T13:16:44.637Z,4
2022-10-19T13:18:01.714Z,4
2022-10-19T13:19:18.710Z,3
2022-10-19T13:20:35.684Z,5
2022-10-19T13:21:52.947Z,6
2022-10-19T13:23:10.768Z,6
2022-10-19T13:24:27.658Z,5
2022-10-19T13:25:44.593Z,6
2022-10-19T13:27:01.634Z,9
2022-10-19T13:28:18.666Z,24
2022-10-19T13:29:35.640Z,34
2022-10-19T13:30:52.987Z,33
2022-10-19T13:32:09.961Z,219
2022-10-19T13:33:27.655Z,132
2022-10-19T13:34:44.618Z,133
2022-10-19T13:36:01.947Z,103
2022-10-19T13:37:18.760Z,132
2022-10-19T13:39:52.599Z,24
2022-10-19T13:41:10.794Z,12
2022-10-19T13:42:27.674Z,24
2022-10-19T13:43:44.623Z,36
2022-10-19T13:45:01.637Z,24
2022-10-19T13:46:18.671Z,13
2022-10-19T13:47:35.905Z,13
2022-10-19T13:48:52.710Z,13
2022-10-19T13:50:09.648Z,17
2022-10-19T13:51:26.660Z,24
2022-10-19T13:52:43.757Z,21
2022-10-19T13:54:00.718Z,27
2022-10-19T13:55:17.742Z,29
2022-10-19T13:56:34.765Z,36
2022-10-19T13:57:53.193Z,28
2022-10-19T13:59:08.703Z,35
2022-10-19T14:00:26.923Z,35
2022-10-19T14:01:43.849Z,37
2022-10-19T14:03:00.652Z,26
2022-10-19T14:04:17.723Z,35
2022-10-19T14:05:34.675Z,39
2022-10-19T14:06:51.649Z,19
2022-10-19T14:08:08.673Z,10
2022-10-19T14:09:25.755Z,17
2022-10-19T14:10:59.922Z,17
2022-10-19T14:11:59.675Z,16
2022-10-19T14:13:16.666Z,9
2022-10-19T14:14:33.740Z,6
2022-10-19T14:15:50.757Z,9
2022-10-19T14:17:07.713Z,12
2022-10-19T14:18:24.673Z,29
2022-10-19T14:19:41.674Z,86
2022-10-19T14:20:59.094Z,52
2022-10-19T14:22:15.676Z,43
2022-10-19T14:23:32.772Z,23
2022-10-19T14:24:49.725Z,48
2022-10-19T14:26:06.727Z,24
2022-10-19T14:27:23.687Z,10
2022-10-19T14:28:40.695Z,33
2022-10-19T14:29:57.687Z,23
2022-10-19T14:31:14.704Z,18
2022-10-19T14:32:31.733Z,13
2022-10-19T14:33:48.689Z,26
2022-10-19T14:35:05.768Z,38
2022-10-19T14:36:22.681Z,37
2022-10-19T14:37:39.779Z,29
2022-10-19T14:38:56.745Z,19
2022-10-19T14:40:13.958Z,6
2022-10-19T14:41:30.737Z,4
2022-10-19T14:42:47.785Z,4
2022-10-19T14:44:04.721Z,16
2022-10-19T14:45:21.861Z,14
2022-10-19T14:46:38.735Z,14
2022-10-19T14:47:55.754Z,11
2022-10-19T14:49:12.710Z,11
2022-10-19T14:50:29.751Z,11
2022-10-19T14:51:47.006Z,12
2022-10-19T14:53:03.711Z,9
2022-10-19T14:54:20.719Z,8
2022-10-19T14:55:37.772Z,11
2022-10-19T14:56:54.851Z,10
2022-10-19T14:58:11.715Z,10
2022-10-19T14:59:28.785Z,10
2022-10-19T15:00:45.756Z,10
2022-10-19T15:02:02.795Z,9
2022-10-19T15:03:19.797Z,12
2022-10-19T15:04:36.719Z,11
2022-10-19T15:05:53.732Z,11
2022-10-19T15:07:10.770Z,11
2022-10-19T15:08:27.850Z,11
2022-10-19T15:09:48.103Z,10
2022-10-19T15:11:01.764Z,9
2022-10-19T15:12:18.768Z,12
2022-10-19T15:13:35.794Z,19
2022-10-19T15:14:52.778Z,13
2022-10-19T15:16:09.750Z,12
2022-10-19T15:17:26.754Z,12
2022-10-19T15:18:49.424Z,12
2022-10-19T15:20:01.052Z,14
2022-10-19T15:21:17.808Z,13
2022-10-19T15:22:35.053Z,12
2022-10-19T15:23:51.823Z,12
2022-10-19T15:25:08.818Z,14
2022-10-19T15:26:25.789Z,13
2022-10-19T15:27:43.003Z,11
2022-10-19T15:28:59.780Z,13
2022-10-19T15:30:16.829Z,10
2022-10-19T15:31:33.778Z,10
2022-10-19T15:32:50.777Z,10
2022-10-19T15:34:07.807Z,11
2022-10-19T15:35:24.840Z,13
2022-10-19T15:36:41.814Z,13
2022-10-19T15:37:58.797Z,13
2022-10-19T15:39:32.779Z,12
2022-10-19T15:40:35.261Z,13
2022-10-19T15:41:52.842Z,12
2022-10-19T15:43:09.800Z,12
2022-10-19T15:44:26.811Z,12
2022-10-19T15:45:43.875Z,12
2022-10-19T15:47:00.833Z,11
2022-10-19T15:48:17.869Z,10
2022-10-19T15:49:34.862Z,11
2022-10-19T15:50:51.822Z,11
2022-10-19T15:52:08.846Z,12
2022-10-19T15:53:25.798Z,12
2022-10-19T15:54:42.870Z,14
2022-10-19T15:55:59.839Z,16
2022-10-19T15:57:16.849Z,14
2022-10-19T15:58:33.851Z,14
2022-10-19T15:59:50.857Z,14
2022-10-19T16:01:07.862Z,17
2022-10-19T16:02:24.815Z,-1
2022-10-19T16:03:41.825Z,26
2022-10-19T16:04:58.896Z,20
2022-10-19T16:06:15.813Z,18
2022-10-19T16:07:33.019Z,17
2022-10-19T16:08:49.877Z,14
2022-10-19T16:10:07.028Z,13
2022-10-19T16:11:23.856Z,14
2022-10-19T16:12:40.876Z,13
2022-10-19T16:13:57.832Z,12
2022-10-19T16:15:15.099Z,13
2022-10-19T16:16:31.828Z,13
2022-10-19T16:17:48.888Z,13
2022-10-19T16:19:05.843Z,13
2022-10-19T16:20:23.057Z,14
2022-10-19T16:21:39.846Z,15
2022-10-19T16:22:56.854Z,17
2022-10-19T16:24:13.885Z,16
2022-10-19T16:25:30.925Z,16
2022-10-19T16:26:47.856Z,12
2022-10-19T16:28:04.888Z,10
2022-10-19T16:29:23.389Z,9
2022-10-19T16:30:38.900Z,10
2022-10-19T16:31:55.881Z,10
2022-10-19T16:33:12.861Z,12
2022-10-19T16:34:29.869Z,18
2022-10-19T16:35:46.883Z,26
2022-10-19T16:37:05.710Z,26
2022-10-19T16:38:20.975Z,20
2022-10-19T16:39:37.911Z,20
2022-10-19T16:40:54.869Z,20
2022-10-19T16:42:11.876Z,16
2022-10-19T16:43:28.939Z,16
2022-10-19T16:44:45.882Z,16
2022-10-19T16:46:02.912Z,16
2022-10-19T16:47:19.884Z,12
2022-10-19T16:48:36.906Z,12
2022-10-19T16:49:53.955Z,12
2022-10-19T16:51:10.925Z,11
2022-10-19T16:52:27.905Z,10
2022-10-19T16:53:44.926Z,10
2022-10-19T16:55:02.011Z,10
2022-10-19T16:56:18.881Z,9
2022-10-19T16:57:35.912Z,10
2022-10-19T16:58:52.954Z,10
2022-10-19T17:00:09.977Z,10
2022-10-19T17:01:27.002Z,9
2022-10-19T17:02:44.492Z,10
2022-10-19T17:04:00.955Z,10
2022-10-19T17:05:18.065Z,10
2022-10-19T17:06:34.964Z,10
2022-10-19T17:07:52.011Z,10
2022-10-19T17:10:25.957Z,10
2022-10-19T17:11:42.953Z,9
2022-10-19T17:12:59.915Z,9
2022-10-19T17:14:16.971Z,9
2022-10-19T17:15:49.387Z,9
2022-10-19T17:16:50.924Z,9
2022-10-19T17:18:07.970Z,9
2022-10-19T17:19:24.951Z,9
2022-10-19T17:20:41.960Z,10
2022-10-19T17:21:58.957Z,9
2022-10-19T17:23:15.944Z,10
2022-10-19T17:24:32.970Z,10
2022-10-19T17:25:50.005Z,10
2022-10-19T17:27:06.975Z,9
2022-10-19T17:28:25.423Z,9
2022-10-19T17:29:40.972Z,10
2022-10-19T17:30:57.997Z,10
2022-10-19T17:32:14.985Z,9
2022-10-19T17:33:31.990Z,10
2022-10-19T17:34:48.957Z,13
2022-10-19T17:36:06.872Z,17
2022-10-19T17:37:24.141Z,18
2022-10-19T17:38:40.999Z,18
2022-10-19T17:39:57.952Z,20
2022-10-19T17:41:15.017Z,26
2022-10-19T17:42:31.942Z,54
2022-10-19T17:43:49.115Z,81
2022-10-19T17:45:06.493Z,65
2022-10-19T17:46:22.994Z,66
2022-10-19T17:47:39.964Z,64
2022-10-19T17:48:57.060Z,42
2022-10-19T17:50:14.713Z,41
2022-10-19T17:51:31.962Z,39
2022-10-19T17:52:49.169Z,31
2022-10-19T17:54:07.342Z,31
2022-10-19T17:55:23.986Z,29
2022-10-19T17:56:41.614Z,28
2022-10-19T17:58:01.672Z,65
2022-10-19T17:59:20.273Z,49
2022-10-19T18:00:35.646Z,29
2022-10-19T18:01:52.900Z,52
2022-10-19T18:03:10.046Z,139
2022-10-19T18:04:27.037Z,262
2022-10-19T18:05:43.994Z,387
2022-10-19T18:07:01.022Z,250
2022-10-19T18:08:19.261Z,208
2022-10-19T18:09:36.173Z,128
2022-10-19T18:10:53.113Z,382
2022-10-19T18:12:10.630Z,100
2022-10-19T18:13:27.130Z,174
2022-10-19T18:14:44.128Z,174
2022-10-19T18:16:02.373Z,228
2022-10-19T18:17:22.729Z,95
2022-10-19T18:18:37.108Z,35
2022-10-19T18:19:54.166Z,29
2022-10-19T18:21:11.009Z,32
2022-10-19T18:22:28.267Z,32
2022-10-19T18:23:45.106Z,32
2022-10-19T18:25:03.225Z,32
2022-10-19T18:26:21.668Z,32
2022-10-19T18:27:40.066Z,42
2022-10-19T18:28:57.074Z,42
2022-10-19T18:30:14.104Z,96
2022-10-19T18:31:31.246Z,117
2022-10-19T18:32:48.102Z,59
2022-10-19T18:34:05.659Z,256
2022-10-19T18:35:23.277Z,108
2022-10-19T18:36:40.216Z,37
2022-10-19T18:37:57.457Z,27
2022-10-19T18:39:17.783Z,26
2022-10-19T18:40:36.696Z,27
2022-10-19T18:41:53.108Z,29
2022-10-19T18:43:10.145Z,29
2022-10-19T18:44:28.726Z,29
2022-10-19T18:45:45.336Z,31
2022-10-19T18:47:02.176Z,31
2022-10-19T18:48:19.548Z,33
2022-10-19T18:49:36.204Z,36
2022-10-19T18:50:53.950Z,39